Time;durP1;ratioP1;P1;durP2;ratioP2;P2;SDS_P1;SDS_P2;PMS_P1;PMS_P2;Temp;Humidity;BMP_temperature;BMP_pressure;BME280_temperature;BME280_humidity;BME280_pressure;Samples;Min_cycle;Max_cycle;Signal;HPM_P1;HPM_P2
2022/12/02 00:00:28;;;;;;;;;;;;;;;8.77;45.59;100188.09;4464362;32;33873;-69
2022/12/02 00:02:55;;;;;;;;;;;;;;;8.77;45.53;100181.91;4467429;32;34460;-69
2022/12/02 00:05:24;;;;;;;;;;;;;;;8.80;45.47;100190.59;4461114;32;34586;-69
2022/12/02 00:07:52;;;;;;;;;;;;;;;8.63;45.87;100183.59;4473584;32;32088;-66
2022/12/02 00:10:26;;;;;;;;;;;;;;;8.60;46.19;100189.13;4478048;32;34107;-64
2022/12/02 00:12:53;;;;;;;;;;;;;;;8.13;48.34;100189.19;4481515;32;33039;-63
2022/12/02 00:15:29;;;;;;;;;;;;;;;8.67;47.30;100186.06;4470115;32;34607;-65
2022/12/02 00:17:57;;;;;;;;;;;;;;;8.82;46.70;100187.81;4472033;32;32890;-65
2022/12/02 00:20:24;;;;;;;;;;;;;;;8.78;46.50;100184.47;4467924;32;35330;-64
2022/12/02 00:22:51;;;;;;;;;;;;;;;8.72;47.23;100189.31;4476260;32;34409;-64
2022/12/02 00:25:19;;;;;;;;;;;;;;;8.61;47.52;100189.97;4480993;32;34509;-64
2022/12/02 00:27:46;;;;;;;;;;;;;;;8.86;46.78;100192.87;4473675;32;33667;-63
2022/12/02 00:30:13;;;;;;;;;;;;;;;8.83;47.05;100187.75;4469266;32;35226;-64
2022/12/02 00:32:42;;;;;;;;;;;;;;;8.94;46.52;100186.22;4468490;32;35170;-65
2022/12/02 00:35:09;;;;;;;;;;;;;;;8.92;46.83;100194.31;4476710;32;35142;-65
2022/12/02 00:37:36;;;;;;;;;;;;;;;8.91;46.85;100194.41;4468062;32;34552;-64
2022/12/02 00:40:04;;;;;;;;;;;;;;;8.87;47.42;100185.75;4473091;31;33385;-67
2022/12/02 00:42:31;;;;;;;;;;;;;;;8.98;47.19;100191.25;4474445;31;34520;-65
2022/12/02 00:47:45;;;;;;;;;;;;;;;8.81;47.16;100184.28;4468571;32;32920;-66
2022/12/02 00:50:12;;;;;;;;;;;;;;;8.59;47.88;100174.03;4479347;32;33963;-67
2022/12/02 00:52:40;;;;;;;;;;;;;;;8.75;47.31;100176.66;4469171;32;34232;-66
2022/12/02 00:55:07;;;;;;;;;;;;;;;8.85;47.42;100169.78;4469466;32;34317;-67
2022/12/02 00:57:35;;;;;;;;;;;;;;;8.72;47.47;100175.97;4467103;32;33314;-67
2022/12/02 01:00:04;;;;;;;;;;;;;;;8.72;47.58;100174.16;4469810;32;33088;-66
2022/12/02 01:02:32;;;;;;;;;;;;;;;8.70;47.91;100168.09;4470212;32;34113;-66
2022/12/02 01:04:59;;;;;;;;;;;;;;;9.01;46.37;100175.06;4474701;32;34348;-66
2022/12/02 01:07:26;;;;;;;;;;;;;;;9.04;46.20;100172.19;4469401;32;33734;-68
2022/12/02 01:09:54;;;;;;;;;;;;;;;9.01;46.27;100175.06;4475318;32;34147;-66
2022/12/02 01:12:21;;;;;;;;;;;;;;;9.00;46.16;100176.03;4470496;32;34216;-65
2022/12/02 01:14:48;;;;;;;;;;;;;;;8.76;47.19;100161.50;4473854;32;35169;-65
2022/12/02 01:17:16;;;;;;;;;;;;;;;8.68;47.71;100161.97;4474039;32;34982;-65
2022/12/02 01:19:44;;;;;;;;;;;;;;;8.93;46.39;100165.81;4478926;32;35090;-67
2022/12/02 01:22:11;;;;;;;;;;;;;;;8.91;46.26;100157.88;4466910;32;35152;-64
2022/12/02 01:24:38;;;;;;;;;;;;;;;8.93;46.15;100157.81;4466790;32;33795;-66
2022/12/02 01:27:06;;;;;;;;;;;;;;;8.75;47.17;100160.62;4467955;32;33020;-67
2022/12/02 01:29:33;;;;;;;;;;;;;;;8.75;47.04;100157.12;4467751;31;35217;-66
2022/12/02 01:32:01;;;;;;;;;;;;;;;8.90;46.26;100150.84;4468358;32;34100;-65
2022/12/02 01:34:28;;;;;;;;;;;;;;;8.91;46.02;100152.56;4466308;32;34501;-67
2022/12/02 01:36:56;;;;;;;;;;;;;;;8.45;47.70;100146.47;4468279;32;33363;-68
2022/12/02 01:39:23;;;;;;;;;;;;;;;8.77;46.81;100155.22;4465181;32;34156;-66
2022/12/02 01:41:50;;;;;;;;;;;;;;;8.73;47.03;100143.88;4464388;32;34289;-66
2022/12/02 01:44:18;;;;;;;;;;;;;;;8.60;47.68;100145.53;4469278;32;35208;-66
2022/12/02 01:46:45;;;;;;;;;;;;;;;8.70;47.54;100148.50;4477714;32;33729;-64
2022/12/02 01:49:12;;;;;;;;;;;;;;;8.69;47.62;100138.81;4469301;32;34100;-65
2022/12/02 01:51:40;;;;;;;;;;;;;;;8.81;46.84;100146.06;4467881;32;35366;-67
2022/12/02 01:54:07;;;;;;;;;;;;;;;8.79;46.96;100142.63;4459360;32;34783;-66
2022/12/02 01:56:34;;;;;;;;;;;;;;;8.83;46.67;100139.69;4466809;32;33051;-64
2022/12/02 01:59:02;;;;;;;;;;;;;;;8.75;46.98;100141.09;4468397;32;32561;-65
2022/12/02 02:01:33;;;;;;;;;;;;;;;8.77;47.04;100140.06;4470313;32;34455;-63
2022/12/02 02:04:01;;;;;;;;;;;;;;;8.61;47.62;100139.28;4467685;32;34045;-65
2022/12/02 02:06:29;;;;;;;;;;;;;;;8.66;47.51;100142.50;4462623;32;33637;-65
2022/12/02 02:08:56;;;;;;;;;;;;;;;8.71;47.26;100145.78;4462081;32;34292;-65
2022/12/02 02:11:24;;;;;;;;;;;;;;;8.68;47.62;100142.44;4467208;32;34043;-65
2022/12/02 02:13:54;;;;;;;;;;;;;;;8.77;47.54;100147.22;4468297;32;34083;-65
2022/12/02 02:16:21;;;;;;;;;;;;;;;8.71;47.76;100147.59;4473943;32;33318;-65
2022/12/02 02:18:48;;;;;;;;;;;;;;;8.52;48.75;100151.34;4476776;32;34191;-64
2022/12/02 02:21:18;;;;;;;;;;;;;;;8.75;47.83;100149.97;4474083;32;35227;-65
2022/12/02 02:23:46;;;;;;;;;;;;;;;8.57;48.67;100151.94;4480820;32;34347;-68
2022/12/02 02:26:13;;;;;;;;;;;;;;;8.04;49.93;100155.06;4473907;32;33558;-66
2022/12/02 02:28:40;;;;;;;;;;;;;;;7.60;51.51;100156.63;4471513;32;32771;-66
2022/12/02 02:31:08;;;;;;;;;;;;;;;8.32;49.72;100157.00;4468389;32;35411;-66
2022/12/02 02:33:36;;;;;;;;;;;;;;;7.47;52.01;100163.59;4461491;32;33855;-64
2022/12/02 02:36:04;;;;;;;;;;;;;;;7.37;52.37;100151.72;4466261;32;33425;-66
2022/12/02 02:38:31;;;;;;;;;;;;;;;7.59;51.62;100157.59;4471135;32;35447;-65
2022/12/02 02:40:59;;;;;;;;;;;;;;;7.57;52.05;100158.59;4469044;32;34146;-65
2022/12/02 02:43:27;;;;;;;;;;;;;;;7.54;51.81;100156.13;4473953;32;35407;-65
2022/12/02 02:45:54;;;;;;;;;;;;;;;7.85;51.63;100166.78;4473990;32;34853;-67
2022/12/02 02:48:23;;;;;;;;;;;;;;;7.51;51.83;100157.12;4483283;32;33655;-65
2022/12/02 02:50:50;;;;;;;;;;;;;;;7.20;52.35;100166.81;4473767;32;35422;-65
2022/12/02 02:53:20;;;;;;;;;;;;;;;7.35;52.54;100154.50;4476572;32;34538;-65
2022/12/02 02:55:47;;;;;;;;;;;;;;;7.40;52.17;100152.41;4458948;32;33401;-65
2022/12/02 02:58:16;;;;;;;;;;;;;;;7.51;52.16;100156.28;4482689;32;33453;-67
2022/12/02 03:00:45;;;;;;;;;;;;;;;7.60;51.88;100150.44;4470757;32;34585;-66
2022/12/02 03:03:14;;;;;;;;;;;;;;;6.96;53.33;100155.69;4455676;32;35489;-65
2022/12/02 03:05:41;;;;;;;;;;;;;;;7.59;51.68;100149.59;4460780;32;32525;-64
2022/12/02 03:08:09;;;;;;;;;;;;;;;7.37;52.09;100146.41;4468025;32;33946;-65
2022/12/02 03:10:36;;;;;;;;;;;;;;;7.50;51.30;100146.59;4463335;32;35197;-65
2022/12/02 03:13:04;;;;;;;;;;;;;;;7.84;50.43;100145.56;4463950;32;33977;-65
2022/12/02 03:15:31;;;;;;;;;;;;;;;7.79;50.75;100147.59;4454490;32;33657;-65
2022/12/02 03:17:58;;;;;;;;;;;;;;;7.36;52.19;100150.03;4468170;32;33816;-65
2022/12/02 03:20:26;;;;;;;;;;;;;;;7.36;52.13;100148.22;4465570;32;34410;-67
2022/12/02 03:22:53;;;;;;;;;;;;;;;6.92;52.26;100147.94;4479235;32;34626;-64
2022/12/02 03:25:21;;;;;;;;;;;;;;;6.75;52.71;100146.19;4479899;32;33193;-64
2022/12/02 03:27:48;;;;;;;;;;;;;;;6.95;52.62;100145.97;4477640;32;34031;-63
2022/12/02 03:30:15;;;;;;;;;;;;;;;7.66;50.89;100137.62;4468818;32;34077;-65
2022/12/02 03:32:44;;;;;;;;;;;;;;;7.15;51.95;100139.56;4459335;32;35119;-65
2022/12/02 03:35:12;;;;;;;;;;;;;;;7.51;51.31;100135.84;4454644;32;32335;-66
2022/12/02 03:37:39;;;;;;;;;;;;;;;7.39;51.00;100132.06;4459323;32;34056;-67
2022/12/02 03:40:07;;;;;;;;;;;;;;;6.76;52.92;100142.59;4457722;32;35451;-65
2022/12/02 03:42:34;;;;;;;;;;;;;;;6.95;51.89;100139.81;4466051;32;34231;-67
2022/12/02 03:45:02;;;;;;;;;;;;;;;7.19;52.71;100140.28;4466808;32;34624;-64
2022/12/02 03:47:29;;;;;;;;;;;;;;;6.91;52.55;100136.47;4468368;32;34950;-66
2022/12/02 03:49:57;;;;;;;;;;;;;;;6.63;53.15;100134.38;4473834;32;34973;-66
2022/12/02 03:52:24;;;;;;;;;;;;;;;5.87;56.11;100136.44;4470639;32;34237;-66
2022/12/02 03:54:51;;;;;;;;;;;;;;;6.97;52.63;100136.13;4470452;32;32301;-64
2022/12/02 03:57:22;;;;;;;;;;;;;;;7.27;51.65;100134.53;4455162;32;33003;-66
2022/12/02 03:59:49;;;;;;;;;;;;;;;6.84;52.97;100139.50;4467732;32;32822;-65
2022/12/02 04:02:16;;;;;;;;;;;;;;;7.55;50.90;100141.87;4467962;32;34142;-66
2022/12/02 04:04:44;;;;;;;;;;;;;;;7.54;50.97;100141.00;4463366;32;33296;-67
2022/12/02 04:07:11;;;;;;;;;;;;;;;7.70;50.11;100149.88;4476194;32;34173;-67
2022/12/02 04:09:38;;;;;;;;;;;;;;;7.81;50.03;100145.72;4472886;32;35498;-67
2022/12/02 04:12:06;;;;;;;;;;;;;;;7.13;51.14;100148.63;4476609;32;34902;-66
2022/12/02 04:14:33;;;;;;;;;;;;;;;7.28;50.70;100150.41;4467995;32;31668;-67
2022/12/02 04:17:00;;;;;;;;;;;;;;;7.09;51.53;100149.69;4469701;32;34402;-66
2022/12/02 04:19:34;;;;;;;;;;;;;;;7.76;49.68;100148.63;4466565;32;35382;-66
2022/12/02 04:22:01;;;;;;;;;;;;;;;7.62;51.33;100149.44;4468699;32;34691;-65
2022/12/02 04:24:29;;;;;;;;;;;;;;;7.57;50.81;100145.28;4475096;32;33147;-67
2022/12/02 04:26:56;;;;;;;;;;;;;;;6.73;52.07;100148.91;4467559;32;34164;-65
2022/12/02 04:29:23;;;;;;;;;;;;;;;7.41;51.27;100150.59;4471960;32;35174;-66
2022/12/02 04:31:51;;;;;;;;;;;;;;;7.36;51.32;100147.34;4470051;32;34145;-68
2022/12/02 04:34:18;;;;;;;;;;;;;;;7.19;51.77;100140.28;4465586;32;32188;-67
2022/12/02 04:36:45;;;;;;;;;;;;;;;7.41;51.42;100145.28;4465499;32;33537;-65
2022/12/02 04:39:13;;;;;;;;;;;;;;;6.63;52.87;100142.37;4468576;32;34025;-66
2022/12/02 04:41:40;;;;;;;;;;;;;;;5.83;55.50;100149.00;4464215;32;34395;-67
2022/12/02 04:44:08;;;;;;;;;;;;;;;7.58;50.53;100149.69;4465148;32;33363;-67
2022/12/02 04:46:41;;;;;;;;;;;;;;;7.16;51.54;100157.28;4463243;32;34143;-66
2022/12/02 04:49:08;;;;;;;;;;;;;;;5.80;54.69;100161.56;4459125;32;33977;-66
2022/12/02 04:51:35;;;;;;;;;;;;;;;6.87;52.96;100148.22;4477976;32;33816;-66
2022/12/02 04:54:03;;;;;;;;;;;;;;;6.51;53.15;100148.31;4470464;32;34719;-65
2022/12/02 04:56:30;;;;;;;;;;;;;;;7.23;51.29;100142.69;4473612;32;34220;-68
2022/12/02 04:58:57;;;;;;;;;;;;;;;6.60;52.55;100146.97;4470296;32;34301;-68
2022/12/02 05:01:25;;;;;;;;;;;;;;;7.00;51.41;100151.94;4469264;32;35138;-68
2022/12/02 05:03:52;;;;;;;;;;;;;;;7.59;50.74;100148.75;4465944;32;32316;-67
2022/12/02 05:06:19;;;;;;;;;;;;;;;7.54;50.49;100148.97;4471365;32;34920;-69
2022/12/02 05:08:47;;;;;;;;;;;;;;;7.69;49.89;100150.78;4470731;32;33108;-67
2022/12/02 05:11:14;;;;;;;;;;;;;;;7.89;49.55;100146.13;4474630;32;34326;-68
2022/12/02 05:13:41;;;;;;;;;;;;;;;7.12;51.50;100165.50;4463170;32;33304;-67
2022/12/02 05:16:09;;;;;;;;;;;;;;;8.03;48.94;100145.34;4468053;32;34115;-66
2022/12/02 05:18:36;;;;;;;;;;;;;;;7.84;49.32;100145.56;4462608;32;32686;-67
2022/12/02 05:21:04;;;;;;;;;;;;;;;7.77;49.75;100155.72;4468301;32;34962;-68
2022/12/02 05:23:31;;;;;;;;;;;;;;;6.92;51.66;100154.12;4467206;32;33658;-67
2022/12/02 05:25:58;;;;;;;;;;;;;;;7.05;51.52;100153.47;4468415;32;35087;-67
2022/12/02 05:28:26;;;;;;;;;;;;;;;7.56;50.10;100154.25;4466913;32;34168;-68
2022/12/02 05:30:53;;;;;;;;;;;;;;;7.35;50.03;100157.16;4475288;32;34147;-67
2022/12/02 05:33:20;;;;;;;;;;;;;;;7.37;50.42;100157.91;4468481;32;32195;-68
2022/12/02 05:35:48;;;;;;;;;;;;;;;6.76;51.85;100153.22;4462993;32;35094;-67
2022/12/02 05:38:15;;;;;;;;;;;;;;;7.37;50.97;100149.06;4464409;32;34390;-67
2022/12/02 05:40:42;;;;;;;;;;;;;;;6.51;53.18;100156.28;4471170;32;34142;-66
2022/12/02 05:43:17;;;;;;;;;;;;;;;6.90;52.46;100150.72;4464466;32;34194;-64
2022/12/02 05:45:44;;;;;;;;;;;;;;;7.10;51.83;100154.97;4477456;32;34248;-67
2022/12/02 05:48:13;;;;;;;;;;;;;;;7.03;51.37;100155.34;4466749;32;33716;-67
2022/12/02 05:50:40;;;;;;;;;;;;;;;6.89;52.68;100156.94;4466481;32;33131;-67
2022/12/02 05:53:34;;;;;;;;;;;;;;;5.97;54.03;100160.78;4471736;32;33738;-66
2022/12/02 05:56:02;;;;;;;;;;;;;;;7.20;51.50;100164.16;4477438;32;34158;-66
2022/12/02 05:58:30;;;;;;;;;;;;;;;6.83;52.22;100159.94;4465534;32;32933;-66
2022/12/02 06:00:57;;;;;;;;;;;;;;;7.44;50.41;100153.97;4471844;32;35127;-64
2022/12/02 06:03:25;;;;;;;;;;;;;;;6.52;52.72;100156.22;4464901;32;34608;-66
2022/12/02 06:05:52;;;;;;;;;;;;;;;7.32;51.36;100162.66;4468935;32;35359;-64
2022/12/02 06:08:26;;;;;;;;;;;;;;;7.70;50.61;100163.19;4461785;32;33836;-64
2022/12/02 06:10:55;;;;;;;;;;;;;;;8.02;49.28;100162.28;4463991;32;34370;-65
2022/12/02 06:13:27;;;;;;;;;;;;;;;7.05;51.68;100166.78;4457432;32;32465;-66
2022/12/02 06:15:55;;;;;;;;;;;;;;;7.14;51.12;100174.28;4462146;32;36918;-64
2022/12/02 06:18:23;;;;;;;;;;;;;;;7.88;49.45;100171.94;4459501;32;33890;-64
2022/12/02 06:20:53;;;;;;;;;;;;;;;6.92;51.89;100171.91;4453586;32;32542;-67
2022/12/02 06:23:21;;;;;;;;;;;;;;;6.49;52.92;100175.00;4460362;32;33630;-68
2022/12/02 06:25:49;;;;;;;;;;;;;;;6.29;53.04;100170.69;4458403;32;33920;-65
2022/12/02 06:28:27;;;;;;;;;;;;;;;7.07;51.52;100180.88;4466520;32;34557;-64
2022/12/02 06:30:55;;;;;;;;;;;;;;;7.11;51.45;100182.44;4468589;32;34031;-65
2022/12/02 06:33:30;;;;;;;;;;;;;;;7.76;49.82;100177.94;4460999;32;33732;-66
2022/12/02 06:35:58;;;;;;;;;;;;;;;7.47;50.70;100179.56;4449469;32;34100;-67
2022/12/02 06:38:30;;;;;;;;;;;;;;;6.23;52.52;100189.63;4445462;32;33950;-66
2022/12/02 06:41:08;;;;;;;;;;;;;;;6.19;54.07;100184.50;4445789;32;34612;-68
2022/12/02 06:43:35;;;;;;;;;;;;;;;6.54;52.35;100186.25;4440269;32;34654;-66
2022/12/02 06:46:03;;;;;;;;;;;;;;;7.78;49.86;100191.19;4442863;32;33745;-67
2022/12/02 06:48:31;;;;;;;;;;;;;;;7.65;49.94;100196.34;4441635;32;33095;-66
2022/12/02 06:51:06;;;;;;;;;;;;;;;7.69;49.93;100190.75;4436870;32;32479;-65
2022/12/02 06:53:37;;;;;;;;;;;;;;;8.10;48.94;100190.22;4438256;32;32392;-65
2022/12/02 06:56:06;;;;;;;;;;;;;;;7.93;49.19;100191.19;4434373;32;33082;-68
2022/12/02 06:58:36;;;;;;;;;;;;;;;7.33;51.15;100192.78;4444832;32;32637;-66
2022/12/02 07:01:07;;;;;;;;;;;;;;;7.50;50.16;100189.19;4444513;32;33624;-67
2022/12/02 07:03:35;;;;;;;;;;;;;;;6.23;52.97;100192.28;4446363;32;32176;-68
2022/12/02 07:06:13;;;;;;;;;;;;;;;7.15;51.48;100197.28;4437876;32;34816;-67
2022/12/02 07:08:41;;;;;;;;;;;;;;;5.99;53.63;100194.31;4446517;32;34126;-68
2022/12/02 07:11:15;;;;;;;;;;;;;;;7.33;51.17;100203.44;4446424;32;34065;-71
2022/12/02 07:13:42;;;;;;;;;;;;;;;6.54;52.78;100196.03;4442239;32;32425;-71
2022/12/02 07:16:45;;;;;;;;;;;;;;;7.12;50.83;100200.13;4442232;32;33857;-65
2022/12/02 07:19:14;;;;;;;;;;;;;;;7.18;51.89;100197.13;4394170;32;34148;-70
2022/12/02 07:21:41;;;;;;;;;;;;;;;7.29;51.40;100205.41;4436704;32;34131;-66
2022/12/02 07:24:10;;;;;;;;;;;;;;;7.34;51.74;100208.66;4457849;32;33127;-68
2022/12/02 07:26:38;;;;;;;;;;;;;;;7.27;51.78;100209.09;4437761;32;35182;-68
2022/12/02 07:29:08;;;;;;;;;;;;;;;7.54;51.41;100204.06;4448729;32;34176;-69
2022/12/02 07:31:43;;;;;;;;;;;;;;;7.06;51.65;100209.28;4442172;32;34210;-71
2022/12/02 07:34:12;;;;;;;;;;;;;;;6.95;51.50;100214.31;4446651;32;33626;-67
2022/12/02 07:36:39;;;;;;;;;;;;;;;7.17;51.63;100206.91;4471318;32;34234;-67
2022/12/02 07:39:07;;;;;;;;;;;;;;;7.29;51.02;100215.19;4466259;32;34092;-68
2022/12/02 07:41:34;;;;;;;;;;;;;;;7.29;50.29;100213.41;4472125;32;35444;-68
2022/12/02 07:44:04;;;;;;;;;;;;;;;7.06;52.17;100203.97;4468432;32;33365;-70
2022/12/02 07:46:31;;;;;;;;;;;;;;;7.19;50.71;100213.03;4471506;32;32741;-67
2022/12/02 07:48:59;;;;;;;;;;;;;;;6.46;53.03;100209.72;4462435;32;34157;-66
2022/12/02 07:51:26;;;;;;;;;;;;;;;6.13;53.32;100208.72;4470142;32;34731;-69
2022/12/02 07:53:53;;;;;;;;;;;;;;;6.69;52.45;100216.53;4467653;32;32235;-68
2022/12/02 07:56:21;;;;;;;;;;;;;;;7.03;51.76;100211.25;4469172;32;34631;-67
2022/12/02 07:58:48;;;;;;;;;;;;;;;6.96;52.29;100221.34;4469793;32;34617;-70
2022/12/02 08:01:35;;;;;;;;;;;;;;;6.47;52.58;100218.56;4473843;32;35070;-67
2022/12/02 08:04:03;;;;;;;;;;;;;;;6.88;51.72;100213.78;4469292;32;33700;-67
2022/12/02 08:06:30;;;;;;;;;;;;;;;6.50;51.72;100218.41;4474944;32;32834;-69
2022/12/02 08:09:05;;;;;;;;;;;;;;;6.54;52.20;100210.19;4473352;32;32973;-69
2022/12/02 08:11:32;;;;;;;;;;;;;;;6.07;53.60;100217.88;4476656;32;33872;-67
2022/12/02 08:13:59;;;;;;;;;;;;;;;6.46;52.88;100209.72;4467799;32;33543;-66
2022/12/02 08:16:27;;;;;;;;;;;;;;;6.69;51.49;100216.53;4470526;32;33908;-67
2022/12/02 08:18:54;;;;;;;;;;;;;;;5.81;53.26;100217.31;4470958;32;34443;-68
2022/12/02 08:21:22;;;;;;;;;;;;;;;6.36;53.04;100221.75;4474156;32;34064;-68
2022/12/02 08:23:49;;;;;;;;;;;;;;;4.89;56.35;100215.34;4463474;32;34660;-66
2022/12/02 08:26:16;;;;;;;;;;;;;;;5.94;54.35;100220.28;4467847;32;34055;-65
2022/12/02 08:28:44;;;;;;;;;;;;;;;6.34;53.06;100220.13;4469550;32;34254;-66
2022/12/02 08:31:17;;;;;;;;;;;;;;;6.67;52.46;100221.06;4462279;32;33877;-66
2022/12/02 08:33:44;;;;;;;;;;;;;;;6.32;53.27;100220.16;4469511;32;33655;-67
2022/12/02 08:36:11;;;;;;;;;;;;;;;6.54;51.95;100218.16;4476829;32;34178;-66
2022/12/02 08:38:39;;;;;;;;;;;;;;;6.67;52.61;100218.41;4474076;32;34284;-67
2022/12/02 08:41:06;;;;;;;;;;;;;;;6.84;52.17;100220.22;4471034;32;33986;-68
2022/12/02 08:43:40;;;;;;;;;;;;;;;6.54;53.10;100220.81;4477703;32;33163;-67
2022/12/02 08:46:08;;;;;;;;;;;;;;;6.60;52.66;100221.47;4473278;32;33968;-69
2022/12/02 08:48:35;;;;;;;;;;;;;;;6.30;54.44;100214.94;4474463;32;35430;-67
2022/12/02 08:51:03;;;;;;;;;;;;;;;6.01;54.10;100216.37;4479425;32;33823;-68
2022/12/02 08:53:30;;;;;;;;;;;;;;;6.00;54.58;100217.31;4472578;32;33418;-66
2022/12/02 08:55:57;;;;;;;;;;;;;;;6.25;55.32;100224.94;4474786;32;33420;-67
2022/12/02 08:58:25;;;;;;;;;;;;;;;6.22;55.67;100221.56;4461352;32;34057;-66
2022/12/02 09:00:52;;;;;;;;;;;;;;;6.36;55.03;100218.25;4470022;32;33148;-68
2022/12/02 09:03:20;;;;;;;;;;;;;;;6.07;55.78;100224.06;4468950;32;32310;-66
2022/12/02 09:05:47;;;;;;;;;;;;;;;5.59;57.03;100221.91;4468629;32;34793;-68
2022/12/02 09:08:14;;;;;;;;;;;;;;;5.40;58.63;100235.16;4472363;32;34204;-67
2022/12/02 09:10:42;;;;;;;;;;;;;;;6.33;55.62;100223.72;4465770;32;33792;-68
2022/12/02 09:13:09;;;;;;;;;;;;;;;6.46;55.63;100222.16;4475701;32;32764;-69
2022/12/02 09:15:37;;;;;;;;;;;;;;;6.46;55.25;100223.03;4477927;32;32708;-67
2022/12/02 09:18:04;;;;;;;;;;;;;;;6.60;55.75;100224.13;4466771;32;32996;-68
2022/12/02 09:20:39;;;;;;;;;;;;;;;6.73;53.27;100219.87;4477304;32;34362;-70
2022/12/02 09:23:06;;;;;;;;;;;;;;;6.20;55.37;100226.13;4463672;32;31557;-69
2022/12/02 09:25:33;;;;;;;;;;;;;;;6.23;55.08;100225.97;4459592;32;33932;-67
2022/12/02 09:28:00;;;;;;;;;;;;;;;6.18;55.05;100226.19;4466766;32;35150;-69
2022/12/02 09:30:28;;;;;;;;;;;;;;;5.83;56.48;100226.03;4478669;32;34384;-67
2022/12/02 09:32:55;;;;;;;;;;;;;;;5.86;55.93;100225.03;4458560;32;33518;-67
2022/12/02 09:35:22;;;;;;;;;;;;;;;6.22;54.63;100225.09;4475609;32;33816;-67
2022/12/02 09:37:50;;;;;;;;;;;;;;;5.71;56.54;100226.63;4468330;32;34045;-68
2022/12/02 09:40:17;;;;;;;;;;;;;;;6.22;55.10;100230.41;4473212;32;34666;-67
2022/12/02 09:42:44;;;;;;;;;;;;;;;6.04;55.28;100224.19;4469767;32;32195;-67
2022/12/02 09:45:12;;;;;;;;;;;;;;;6.28;54.82;100230.09;4456012;32;32732;-69
2022/12/02 09:47:39;;;;;;;;;;;;;;;6.49;54.87;100225.53;4468859;32;35541;-66
2022/12/02 09:50:07;;;;;;;;;;;;;;;6.46;54.47;100223.03;4459864;32;34210;-68
2022/12/02 09:52:34;;;;;;;;;;;;;;;6.53;54.94;100219.09;4458285;32;34266;-66
2022/12/02 09:55:06;;;;;;;;;;;;;;;6.53;54.62;100221.75;4465763;32;35052;-67
2022/12/02 09:57:34;;;;;;;;;;;;;;;6.13;56.37;100222.91;4458171;32;34135;-67
2022/12/02 10:00:07;;;;;;;;;;;;;;;5.83;57.75;100220.72;4472615;32;34118;-69
2022/12/02 10:02:42;;;;;;;;;;;;;;;6.15;57.20;100225.47;4475525;32;34764;-68
2022/12/02 10:05:17;;;;;;;;;;;;;;;6.33;55.89;100213.09;4459493;32;34775;-67
2022/12/02 10:07:44;;;;;;;;;;;;;;;5.73;58.79;100222.09;4466595;32;35300;-68
2022/12/02 10:10:13;;;;;;;;;;;;;;;6.28;58.12;100221.28;4447195;32;34473;-66
2022/12/02 10:12:40;;;;;;;;;;;;;;;6.44;57.29;100213.41;4464547;32;33706;-69
2022/12/02 10:15:10;;;;;;;;;;;;;;;6.36;57.40;100215.59;4453537;32;35206;-68
2022/12/02 10:17:38;;;;;;;;;;;;;;;6.49;56.49;100211.38;4461037;32;33512;-67
2022/12/02 10:20:05;;;;;;;;;;;;;;;6.64;56.58;100207.91;4457926;32;34484;-67
2022/12/02 10:22:33;;;;;;;;;;;;;;;6.89;54.50;100211.97;4467795;32;33389;-69
2022/12/02 10:25:01;;;;;;;;;;;;;;;6.83;55.36;100213.16;4461189;32;33928;-68
2022/12/02 10:27:29;;;;;;;;;;;;;;;7.09;54.84;100209.13;4466139;32;33127;-66
2022/12/02 10:30:16;;;;;;;;;;;;;;;6.60;57.29;100213.47;4470471;32;33003;-68
2022/12/02 10:32:55;;;;;;;;;;;;;;;5.70;59.18;100216.94;4474148;32;33362;-68
2022/12/02 10:35:22;;;;;;;;;;;;;;;6.90;56.03;100214.56;4459387;32;34097;-68
2022/12/02 10:37:49;;;;;;;;;;;;;;;7.11;55.64;100212.56;4472372;32;32913;-67
2022/12/02 10:40:17;;;;;;;;;;;;;;;7.06;55.69;100219.06;4469623;32;35014;-65
2022/12/02 10:42:45;;;;;;;;;;;;;;;7.31;54.77;100216.81;4468887;32;32633;-66
2022/12/02 10:45:15;;;;;;;;;;;;;;;7.09;55.55;100214.44;4480981;32;34062;-67
2022/12/02 10:47:43;;;;;;;;;;;;;;;7.02;55.68;100209.53;4480018;32;34847;-66
2022/12/02 10:50:16;;;;;;;;;;;;;;;7.30;55.16;100208.94;4482092;32;33050;-66
2022/12/02 10:52:44;;;;;;;;;;;;;;;7.31;55.01;100207.97;4476446;32;33538;-66
2022/12/02 10:55:12;;;;;;;;;;;;;;;7.03;55.98;100206.81;4481850;32;32798;-66
2022/12/02 10:57:40;;;;;;;;;;;;;;;7.36;55.06;100203.28;4459563;32;34101;-66
2022/12/02 11:00:11;;;;;;;;;;;;;;;7.32;55.14;100204.38;4461752;32;34347;-68
2022/12/02 11:02:54;;;;;;;;;;;;;;;7.18;56.21;100207.78;4473474;32;31836;-66
2022/12/02 11:05:25;;;;;;;;;;;;;;;7.52;55.34;100209.50;4468622;32;33959;-66
2022/12/02 11:07:58;;;;;;;;;;;;;;;7.14;56.25;100204.41;4458178;32;33094;-66
2022/12/02 11:10:33;;;;;;;;;;;;;;;6.82;56.92;100198.12;4464959;32;33873;-68
2022/12/02 11:13:20;;;;;;;;;;;;;;;6.83;57.42;100194.53;4473533;32;34589;-66
2022/12/02 11:15:49;;;;;;;;;;;;;;;6.73;57.94;100196.81;4467307;32;34047;-69
2022/12/02 11:18:28;;;;;;;;;;;;;;;6.34;59.68;100197.03;4468827;32;35232;-65
2022/12/02 11:21:05;;;;;;;;;;;;;;;6.80;57.75;100193.81;4472214;32;34215;-67
2022/12/02 11:23:32;;;;;;;;;;;;;;;6.97;57.37;100188.50;4473979;32;33640;-68
2022/12/02 11:26:06;;;;;;;;;;;;;;;6.80;58.45;100199.16;4460809;32;34235;-67
2022/12/02 11:28:54;;;;;;;;;;;;;;;6.72;57.94;100189.78;4469634;32;35394;-66
2022/12/02 11:31:22;;;;;;;;;;;;;;;6.64;58.44;100193.75;4466792;32;34223;-67
2022/12/02 11:33:50;;;;;;;;;;;;;;;6.81;59.08;100187.59;4477430;32;32986;-69
2022/12/02 11:36:21;;;;;;;;;;;;;;;6.89;58.57;100191.53;4478307;32;34146;-65
2022/12/02 11:38:49;;;;;;;;;;;;;;;6.46;60.04;100190.25;4466819;32;34450;-66
2022/12/02 11:41:19;;;;;;;;;;;;;;;6.61;59.27;100189.44;4476571;32;33941;-67
2022/12/02 11:43:46;;;;;;;;;;;;;;;7.05;58.53;100190.75;4468598;32;33059;-67
2022/12/02 11:46:14;;;;;;;;;;;;;;;7.03;58.10;100185.50;4464824;32;33856;-65
2022/12/02 11:48:45;;;;;;;;;;;;;;;6.84;58.80;100182.06;4466382;32;35581;-67
2022/12/02 11:51:25;;;;;;;;;;;;;;;6.86;58.32;100181.06;4469866;32;34389;-66
2022/12/02 11:53:52;;;;;;;;;;;;;;;7.13;57.54;100184.06;4471053;32;34670;-69
2022/12/02 11:56:20;;;;;;;;;;;;;;;5.68;62.38;100183.41;4453056;32;33589;-66
2022/12/02 11:58:47;;;;;;;;;;;;;;;6.74;59.19;100182.59;4472102;32;34288;-67
2022/12/02 12:01:16;;;;;;;;;;;;;;;6.10;61.60;100183.19;4476220;32;34445;-65
2022/12/02 12:03:44;;;;;;;;;;;;;;;6.64;60.09;100183.97;4459264;32;32303;-66
2022/12/02 12:06:12;;;;;;;;;;;;;;;7.11;58.33;100185.94;4470291;32;33925;-66
2022/12/02 12:08:41;;;;;;;;;;;;;;;7.35;58.01;100182.91;4470569;32;32876;-66
2022/12/02 12:11:16;;;;;;;;;;;;;;;7.32;57.51;100183.94;4467657;31;34292;-67
2022/12/02 12:14:03;;;;;;;;;;;;;;;7.26;57.67;100180.75;4470657;32;33753;-66
2022/12/02 12:16:32;;;;;;;;;;;;;;;7.23;58.78;100189.78;4470326;31;34089;-66
2022/12/02 12:19:00;;;;;;;;;;;;;;;7.34;58.06;100181.19;4471929;32;33890;-66
2022/12/02 12:21:31;;;;;;;;;;;;;;;7.44;57.67;100182.41;4472740;31;33067;-68
2022/12/02 12:24:20;;;;;;;;;;;;;;;7.70;57.44;100176.50;4473349;32;33593;-65
2022/12/02 12:26:50;;;;;;;;;;;;;;;7.95;55.92;100183.09;4472341;32;34151;-66
2022/12/02 12:29:18;;;;;;;;;;;;;;;7.50;57.50;100178.53;4472096;32;33223;-66
2022/12/02 12:31:45;;;;;;;;;;;;;;;6.36;60.67;100176.56;4471427;32;33221;-66
2022/12/02 12:34:15;;;;;;;;;;;;;;;7.68;57.38;100182.87;4468402;32;33427;-65
2022/12/02 12:36:43;;;;;;;;;;;;;;;7.79;56.58;100187.56;4469949;32;33918;-66
2022/12/02 12:39:11;;;;;;;;;;;;;;;6.23;59.71;100184.28;4471525;32;35042;-66
2022/12/02 12:41:38;;;;;;;;;;;;;;;6.72;58.66;100184.44;4474365;31;34653;-66
2022/12/02 12:44:25;;;;;;;;;;;;;;;7.59;57.31;100183.37;4467849;32;33567;-66
2022/12/02 12:46:58;;;;;;;;;;;;;;;8.07;55.26;100184.22;4470156;32;35238;-67
2022/12/02 12:49:26;;;;;;;;;;;;;;;8.00;55.33;100174.84;4474540;32;35149;-65
2022/12/02 12:51:53;;;;;;;;;;;;;;;8.23;55.04;100173.53;4468265;32;34210;-64
2022/12/02 12:54:21;;;;;;;;;;;;;;;7.35;56.63;100182.91;4475034;32;34367;-65
2022/12/02 12:56:48;;;;;;;;;;;;;;;8.20;55.12;100179.87;4471518;32;34131;-66
2022/12/02 12:59:15;;;;;;;;;;;;;;;8.13;55.09;100184.72;4476892;32;32935;-67